createdAt,value
2023-04-15T00:01:01.294Z,-1.16
2023-04-15T00:03:28.722Z,-1.18
2023-04-15T00:05:55.540Z,-1.19
2023-04-15T00:08:22.172Z,-1.18
2023-04-15T00:10:49.437Z,-1.15
2023-04-15T00:13:16.617Z,-1.14
2023-04-15T00:15:43.421Z,-1.11
2023-04-15T00:18:10.050Z,-1.10
2023-04-15T00:20:37.262Z,-1.11
2023-04-15T00:23:04.237Z,-1.11
2023-04-15T00:25:31.135Z,-1.15
2023-04-15T00:27:57.785Z,-1.18
2023-04-15T00:30:24.361Z,-1.17
2023-04-15T00:32:51.056Z,-1.20
2023-04-15T00:35:18.253Z,-1.12
2023-04-15T00:37:46.174Z,-1.03
2023-04-15T00:40:13.990Z,-0.87
2023-04-15T00:42:40.987Z,-0.96
2023-04-15T00:45:08.938Z,-1.02
2023-04-15T00:47:37.671Z,-1.02
2023-04-15T00:50:05.054Z,-1.05
2023-04-15T00:52:32.097Z,-1.03
2023-04-15T00:54:59.526Z,-0.97
2023-04-15T00:57:27.127Z,-0.98
2023-04-15T00:59:53.891Z,-1.03
2023-04-15T01:02:21.288Z,-1.03
2023-04-15T01:04:48.081Z,-0.95
2023-04-15T01:07:14.716Z,-0.81
2023-04-15T01:09:42.269Z,-0.74
2023-04-15T01:12:12.077Z,-0.71
2023-04-15T01:14:38.826Z,-0.78
2023-04-15T01:17:05.400Z,-0.81
2023-04-15T01:19:32.183Z,-0.85
2023-04-15T01:21:59.112Z,-0.88
2023-04-15T01:24:28.059Z,-0.89
2023-04-15T01:26:54.622Z,-0.93
2023-04-15T01:29:21.451Z,-0.95
2023-04-15T01:31:52.713Z,-0.92
2023-04-15T01:34:19.664Z,-0.94
2023-04-15T01:36:46.871Z,-1.01
2023-04-15T01:39:13.694Z,-0.99
2023-04-15T01:41:42.296Z,-0.96
2023-04-15T01:44:09.187Z,-0.98
2023-04-15T01:46:36.462Z,-0.94
2023-04-15T01:49:03.332Z,-0.89
2023-04-15T01:51:29.931Z,-0.88
2023-04-15T01:53:57.707Z,-0.89
2023-04-15T01:56:24.578Z,-0.89
2023-04-15T01:58:51.796Z,-0.87
2023-04-15T02:01:20.075Z,-0.83
2023-04-15T02:03:48.044Z,-0.80
2023-04-15T02:06:14.947Z,-0.76
2023-04-15T02:08:41.531Z,-0.74
2023-04-15T02:11:08.487Z,-0.68
2023-04-15T02:13:35.153Z,-0.64
2023-04-15T02:16:01.877Z,-0.63
2023-04-15T02:18:28.616Z,-0.57
2023-04-15T02:20:57.336Z,-0.58
2023-04-15T02:23:24.592Z,-0.54
2023-04-15T02:25:53.346Z,-0.48
2023-04-15T02:28:20.514Z,-0.49
2023-04-15T02:30:52.782Z,-0.53
2023-04-15T02:33:20.209Z,-0.59
2023-04-15T02:35:47.338Z,-0.65
2023-04-15T02:38:14.825Z,-0.67
2023-04-15T02:40:41.607Z,-0.71
2023-04-15T02:43:08.177Z,-0.78
2023-04-15T02:45:34.840Z,-0.81
2023-04-15T02:48:06.235Z,-0.84
2023-04-15T02:50:33.167Z,-0.80
2023-04-15T02:53:01.540Z,-0.79
2023-04-15T02:55:29.152Z,-0.78
2023-04-15T02:57:55.984Z,-0.78
2023-04-15T03:00:25.218Z,-0.73
2023-04-15T03:02:56.587Z,-0.68
2023-04-15T03:05:26.535Z,-0.65
2023-04-15T03:07:53.883Z,-0.66
2023-04-15T03:10:21.582Z,-0.63
2023-04-15T03:12:48.570Z,-0.66
2023-04-15T03:15:15.635Z,-0.65
2023-04-15T03:17:42.274Z,-0.66
2023-04-15T03:20:09.624Z,-0.58
2023-04-15T03:22:36.298Z,-0.57
2023-04-15T03:25:02.890Z,-0.52
2023-04-15T03:27:29.396Z,-0.54
2023-04-15T03:29:56.851Z,-0.51
2023-04-15T03:32:23.502Z,-0.51
2023-04-15T03:34:50.296Z,-0.48
2023-04-15T03:37:16.852Z,-0.48
2023-04-15T03:39:43.394Z,-0.47
2023-04-15T03:42:09.961Z,-0.45
2023-04-15T03:44:37.196Z,-0.48
2023-04-15T03:47:03.762Z,-0.49
2023-04-15T03:49:30.514Z,-0.51
2023-04-15T03:51:57.423Z,-0.49
2023-04-15T03:54:23.940Z,-0.50
2023-04-15T03:56:50.500Z,-0.46
2023-04-15T03:59:17.051Z,-0.36
2023-04-15T04:01:43.685Z,-0.35
2023-04-15T04:04:10.881Z,-0.34
2023-04-15T04:06:37.696Z,-0.39
2023-04-15T04:09:04.241Z,-0.38
2023-04-15T04:11:31.778Z,-0.33
2023-04-15T04:13:58.337Z,-0.32
2023-04-15T04:16:25.039Z,-0.31
2023-04-15T04:18:51.632Z,-0.35
2023-04-15T04:21:18.288Z,-0.28
2023-04-15T04:23:44.901Z,-0.27
2023-04-15T04:26:11.483Z,-0.20
2023-04-15T04:28:40.638Z,-0.22
2023-04-15T04:31:07.861Z,-0.21
2023-04-15T04:33:34.564Z,-0.22
2023-04-15T04:36:01.471Z,-0.20
2023-04-15T04:38:28.103Z,-0.17
2023-04-15T04:40:54.695Z,-0.12
2023-04-15T04:43:21.717Z,-0.12
2023-04-15T04:45:48.291Z,-0.13
2023-04-15T04:48:14.868Z,-0.08
2023-04-15T04:50:41.971Z,-0.03
2023-04-15T04:53:08.641Z,-0.06
2023-04-15T04:55:36.984Z,-0.02
2023-04-15T04:58:03.482Z,0.00
2023-04-15T05:00:30.393Z,0.02
2023-04-15T05:02:57.144Z,0.01
2023-04-15T05:05:23.798Z,0.07
2023-04-15T05:07:50.735Z,0.12
2023-04-15T05:10:18.310Z,0.15
2023-04-15T05:12:45.031Z,0.12
2023-04-15T05:15:12.181Z,0.17
2023-04-15T05:17:38.848Z,0.16
2023-04-15T05:20:05.978Z,0.16
2023-04-15T05:22:32.702Z,0.25
2023-04-15T05:24:59.385Z,0.28
2023-04-15T05:27:26.023Z,0.35
2023-04-15T05:29:52.636Z,0.39
2023-04-15T05:32:19.261Z,0.48
2023-04-15T05:34:45.872Z,0.47
2023-04-15T05:37:12.813Z,0.53
2023-04-15T05:39:39.325Z,0.56
2023-04-15T05:42:06.215Z,0.57
2023-04-15T05:44:32.992Z,0.54
2023-04-15T05:46:59.612Z,0.56
2023-04-15T05:49:26.185Z,0.64
2023-04-15T05:51:52.859Z,0.76
2023-04-15T05:54:20.308Z,0.82
2023-04-15T05:56:46.983Z,0.89
2023-04-15T05:59:13.563Z,0.82
2023-04-15T06:01:40.296Z,0.88
2023-04-15T06:04:07.118Z,1.03
2023-04-15T06:06:33.732Z,1.17
2023-04-15T06:09:00.646Z,1.41
2023-04-15T06:11:27.424Z,1.44
2023-04-15T06:13:54.070Z,1.33
2023-04-15T06:16:20.660Z,1.41
2023-04-15T06:18:47.211Z,1.42
2023-04-15T06:21:13.920Z,1.54
2023-04-15T06:23:41.399Z,1.57
2023-04-15T06:26:08.501Z,1.81
2023-04-15T06:28:35.337Z,2.13
2023-04-15T06:31:02.027Z,2.32
2023-04-15T06:33:28.826Z,2.43
2023-04-15T06:35:55.409Z,2.49
2023-04-15T06:38:22.028Z,2.46
2023-04-15T06:40:48.581Z,2.51
2023-04-15T06:43:15.440Z,2.58
2023-04-15T06:45:41.963Z,2.74
2023-04-15T06:48:08.505Z,2.91
2023-04-15T06:50:35.796Z,3.08
2023-04-15T06:53:03.088Z,3.25
2023-04-15T06:55:29.832Z,3.39
2023-04-15T06:57:56.541Z,3.53
2023-04-15T07:00:23.350Z,3.59
2023-04-15T07:02:49.987Z,3.76
2023-04-15T07:05:16.740Z,3.65
2023-04-15T07:07:43.376Z,3.66
2023-04-15T07:10:11.965Z,3.71
2023-04-15T07:12:38.576Z,3.79
2023-04-15T07:15:05.754Z,3.66
2023-04-15T07:17:32.404Z,3.66
2023-04-15T07:19:59.013Z,3.75
2023-04-15T07:22:27.441Z,3.88
2023-04-15T07:24:54.011Z,3.90
2023-04-15T07:27:21.023Z,3.97
2023-04-15T07:29:48.319Z,4.18
2023-04-15T07:32:14.831Z,4.26
2023-04-15T07:34:42.242Z,4.28
2023-04-15T07:37:09.404Z,4.28
2023-04-15T07:39:36.000Z,4.31
2023-04-15T07:42:03.925Z,4.44
2023-04-15T07:44:30.517Z,4.44
2023-04-15T07:46:57.311Z,4.53
2023-04-15T07:49:23.872Z,4.67
2023-04-15T07:51:51.112Z,4.66
2023-04-15T07:54:17.656Z,4.95
2023-04-15T07:56:44.222Z,5.05
2023-04-15T07:59:11.656Z,5.27
2023-04-15T08:01:38.991Z,5.58
2023-04-15T08:04:05.758Z,5.60
2023-04-15T08:06:33.253Z,5.84
2023-04-15T08:09:00.204Z,5.88
2023-04-15T08:11:27.852Z,5.90
2023-04-15T08:13:54.475Z,5.80
2023-04-15T08:16:27.615Z,5.82
2023-04-15T08:18:57.790Z,5.65
2023-04-15T08:21:25.041Z,5.89
2023-04-15T08:23:53.401Z,6.02
2023-04-15T08:26:21.326Z,6.19
2023-04-15T08:28:49.288Z,6.23
2023-04-15T08:31:17.506Z,5.96
2023-04-15T08:33:44.512Z,6.01
2023-04-15T08:36:11.055Z,5.99
2023-04-15T08:38:38.079Z,5.86
2023-04-15T08:41:12.342Z,5.60
2023-04-15T08:43:50.665Z,5.63
2023-04-15T08:46:17.796Z,5.69
2023-04-15T08:48:45.672Z,5.82
2023-04-15T08:51:16.053Z,6.00
2023-04-15T08:53:47.507Z,6.08
2023-04-15T08:56:16.894Z,5.98
2023-04-15T08:58:47.138Z,5.97
2023-04-15T09:01:13.910Z,6.19
2023-04-15T09:03:42.095Z,6.53
2023-04-15T09:06:09.058Z,6.77
2023-04-15T09:08:35.940Z,6.80
2023-04-15T09:11:05.784Z,6.92
2023-04-15T09:13:32.277Z,7.00
2023-04-15T09:15:58.828Z,6.95
2023-04-15T09:18:31.136Z,6.74
2023-04-15T09:21:08.954Z,6.27
2023-04-15T09:23:36.311Z,5.86
2023-04-15T09:26:03.779Z,5.88
2023-04-15T09:28:31.057Z,5.91
2023-04-15T09:31:01.798Z,5.79
2023-04-15T09:33:30.241Z,5.73
2023-04-15T09:36:05.628Z,5.65
2023-04-15T09:38:32.576Z,5.53
2023-04-15T09:40:59.691Z,5.43
2023-04-15T09:43:40.817Z,5.10
2023-04-15T09:46:07.533Z,5.24
2023-04-15T09:48:34.073Z,5.38
2023-04-15T09:51:02.171Z,5.67
2023-04-15T09:53:30.570Z,5.70
2023-04-15T09:56:03.380Z,5.90
2023-04-15T09:58:34.868Z,5.85
2023-04-15T10:01:04.620Z,5.41
2023-04-15T10:03:36.887Z,5.44
2023-04-15T10:06:05.613Z,5.88
2023-04-15T10:08:34.969Z,6.27
2023-04-15T10:11:05.492Z,6.32
2023-04-15T10:13:37.405Z,6.26
2023-04-15T10:16:11.945Z,6.34
2023-04-15T10:18:42.890Z,6.26
2023-04-15T10:21:09.510Z,6.60
2023-04-15T10:23:36.802Z,6.99
2023-04-15T10:26:04.854Z,6.86
2023-04-15T10:28:31.496Z,7.02
2023-04-15T10:30:59.862Z,6.73
2023-04-15T10:33:27.806Z,6.94
2023-04-15T10:35:56.155Z,7.23
2023-04-15T10:38:43.391Z,7.67
2023-04-15T10:41:17.776Z,7.64
2023-04-15T10:43:57.905Z,7.52
2023-04-15T10:46:35.280Z,7.68
2023-04-15T10:49:13.442Z,7.68
2023-04-15T10:51:42.717Z,7.58
2023-04-15T10:54:14.913Z,7.38
2023-04-15T10:56:45.381Z,7.49
2023-04-15T10:59:11.992Z,7.66
2023-04-15T11:01:53.256Z,7.55
2023-04-15T11:04:51.575Z,7.47
2023-04-15T11:07:40.002Z,7.49
2023-04-15T11:10:32.450Z,7.14
2023-04-15T11:13:02.280Z,6.72
2023-04-15T11:15:33.189Z,6.44
2023-04-15T11:18:10.124Z,6.00
2023-04-15T11:20:38.191Z,5.84
2023-04-15T11:23:13.907Z,5.82
2023-04-15T11:25:43.215Z,5.79
2023-04-15T11:28:11.439Z,5.98
2023-04-15T11:30:39.655Z,6.14
2023-04-15T11:33:09.260Z,6.61
2023-04-15T11:35:36.685Z,6.96
2023-04-15T11:38:05.340Z,7.39
2023-04-15T11:40:33.530Z,7.65
2023-04-15T11:43:15.846Z,7.66
2023-04-15T11:45:58.105Z,7.56
2023-04-15T11:48:35.810Z,7.33
2023-04-15T11:51:04.305Z,7.88
2023-04-15T11:53:44.129Z,8.22
2023-04-15T11:56:17.187Z,8.23
2023-04-15T11:58:44.791Z,8.05
2023-04-15T12:01:11.883Z,7.72
2023-04-15T12:03:41.421Z,8.18
2023-04-15T12:06:21.306Z,8.61
2023-04-15T12:08:49.420Z,9.01
2023-04-15T12:11:17.053Z,9.45
2023-04-15T12:13:51.356Z,9.78
2023-04-15T12:16:21.805Z,9.91
2023-04-15T12:18:52.323Z,10.06
2023-04-15T12:21:34.575Z,10.01
2023-04-15T12:24:04.821Z,9.86
2023-04-15T12:26:37.540Z,9.52
2023-04-15T12:29:08.552Z,8.84
2023-04-15T12:31:47.346Z,8.57
2023-04-15T12:34:14.635Z,8.50
2023-04-15T12:36:41.224Z,8.41
2023-04-15T12:39:07.772Z,8.54
2023-04-15T12:41:34.358Z,8.26
2023-04-15T12:44:01.505Z,8.38
2023-04-15T12:46:28.513Z,8.29
2023-04-15T12:48:55.151Z,8.38
2023-04-15T12:51:21.832Z,8.54
2023-04-15T12:53:49.674Z,8.79
2023-04-15T12:56:17.044Z,8.73
2023-04-15T12:58:43.626Z,8.72
2023-04-15T13:01:11.217Z,8.44
2023-04-15T13:03:37.992Z,8.05
2023-04-15T13:06:05.172Z,8.16
2023-04-15T13:08:32.138Z,7.84
2023-04-15T13:10:58.814Z,7.98
2023-04-15T13:13:25.665Z,8.27
2023-04-15T13:15:52.221Z,8.75
2023-04-15T13:18:19.061Z,8.91
2023-04-15T13:20:45.581Z,9.06
2023-04-15T13:23:12.362Z,8.71
2023-04-15T13:25:38.899Z,8.61
2023-04-15T13:28:05.510Z,8.45
2023-04-15T13:30:32.332Z,8.54
2023-04-15T13:32:59.142Z,8.42
2023-04-15T13:35:25.864Z,8.53
2023-04-15T13:37:54.020Z,8.39
2023-04-15T13:40:20.577Z,8.39
2023-04-15T13:42:47.195Z,8.42
2023-04-15T13:45:13.912Z,8.74
2023-04-15T13:47:40.659Z,8.91
2023-04-15T13:50:07.749Z,8.89
2023-04-15T13:52:34.311Z,8.60
2023-04-15T13:55:07.460Z,8.15
2023-04-15T13:57:47.387Z,8.01
2023-04-15T14:00:14.581Z,7.40
2023-04-15T14:02:42.314Z,7.43
2023-04-15T14:05:09.483Z,7.32
2023-04-15T14:07:36.595Z,7.28
2023-04-15T14:10:04.036Z,7.25
2023-04-15T14:12:30.780Z,7.25
2023-04-15T14:14:57.358Z,7.29
2023-04-15T14:17:24.004Z,7.13
2023-04-15T14:19:50.678Z,7.02
2023-04-15T14:22:18.910Z,7.24
2023-04-15T14:24:45.725Z,7.24
2023-04-15T14:27:12.588Z,7.35
2023-04-15T14:29:39.176Z,7.37
2023-04-15T14:32:12.157Z,7.58
2023-04-15T14:34:39.617Z,7.88
2023-04-15T14:37:06.432Z,8.01
2023-04-15T14:39:33.015Z,7.90
2023-04-15T14:41:59.582Z,7.90
2023-04-15T14:44:26.079Z,7.75
2023-04-15T14:46:52.792Z,7.72
2023-04-15T14:49:19.783Z,7.73
2023-04-15T14:51:46.496Z,7.43
2023-04-15T14:54:13.089Z,7.38
2023-04-15T14:56:39.702Z,7.47
2023-04-15T14:59:06.319Z,7.21
2023-04-15T15:01:33.826Z,7.29
2023-04-15T15:04:00.745Z,7.26
2023-04-15T15:06:27.842Z,7.22
2023-04-15T15:08:54.420Z,7.21
2023-04-15T15:11:21.157Z,7.13
2023-04-15T15:13:47.719Z,6.99
2023-04-15T15:16:14.822Z,7.10
2023-04-15T15:18:41.556Z,6.95
2023-04-15T15:21:08.075Z,6.97
2023-04-15T15:23:34.622Z,6.91
2023-04-15T15:26:01.280Z,6.78
2023-04-15T15:28:27.850Z,6.67
2023-04-15T15:30:54.735Z,6.56
2023-04-15T15:33:21.641Z,6.50
2023-04-15T15:35:48.226Z,6.54
2023-04-15T15:38:14.930Z,6.57
2023-04-15T15:40:41.577Z,6.61
2023-04-15T15:43:08.192Z,6.54
2023-04-15T15:45:35.896Z,6.68
2023-04-15T15:48:02.781Z,6.72
2023-04-15T15:50:29.410Z,6.62
2023-04-15T15:52:56.128Z,6.16
2023-04-15T15:55:23.412Z,6.14
2023-04-15T15:57:50.069Z,6.13
2023-04-15T16:00:17.167Z,5.85
2023-04-15T16:05:13.571Z,5.46
2023-04-15T16:07:40.108Z,5.48
2023-04-15T16:10:07.304Z,5.40
2023-04-15T16:12:35.025Z,5.39
2023-04-15T16:15:01.855Z,5.57
2023-04-15T16:17:28.436Z,5.81
2023-04-15T16:19:57.932Z,5.34
2023-04-15T16:22:27.409Z,5.08
2023-04-15T16:24:54.095Z,4.89
2023-04-15T16:27:20.906Z,4.74
2023-04-15T16:29:47.476Z,4.66
2023-04-15T16:32:14.139Z,4.58
2023-04-15T16:34:41.342Z,4.54
2023-04-15T16:37:08.107Z,4.63
2023-04-15T16:39:34.764Z,4.69
2023-04-15T16:42:02.564Z,4.53
2023-04-15T16:44:29.304Z,4.39
2023-04-15T16:46:56.398Z,4.24
2023-04-15T16:49:22.937Z,4.05
2023-04-15T16:51:49.528Z,3.91
2023-04-15T16:54:16.240Z,3.77
2023-04-15T16:56:42.781Z,3.66
2023-04-15T16:59:09.300Z,3.58
2023-04-15T17:01:36.232Z,3.53
2023-04-15T17:04:02.980Z,3.47
2023-04-15T17:06:30.726Z,3.40
2023-04-15T17:08:57.263Z,3.33
2023-04-15T17:11:23.807Z,3.29
2023-04-15T17:13:50.967Z,3.13
2023-04-15T17:16:17.562Z,3.05
2023-04-15T17:18:44.612Z,2.99
2023-04-15T17:21:11.253Z,2.89
2023-04-15T17:23:37.823Z,2.79
2023-04-15T17:26:04.376Z,2.66
2023-04-15T17:28:30.947Z,2.55
2023-04-15T17:30:57.610Z,2.48
2023-04-15T17:33:55.427Z,2.39
2023-04-15T17:36:11.164Z,2.29
2023-04-15T17:38:37.717Z,2.19
2023-04-15T17:41:04.818Z,2.08
2023-04-15T17:43:31.978Z,2.01
2023-04-15T17:45:58.828Z,1.92
2023-04-15T17:48:26.128Z,1.86
2023-04-15T17:50:52.680Z,1.77
2023-04-15T17:53:19.263Z,1.71
2023-04-15T17:55:46.469Z,1.66
2023-04-15T17:58:13.039Z,1.63
2023-04-15T18:00:39.580Z,1.66
2023-04-15T18:03:06.270Z,1.68
2023-04-15T18:05:32.948Z,1.64
2023-04-15T18:07:59.542Z,1.57
2023-04-15T18:10:26.104Z,1.59
2023-04-15T18:12:52.672Z,1.58
2023-04-15T18:15:19.198Z,1.53
2023-04-15T18:17:46.298Z,1.46
2023-04-15T18:20:13.030Z,1.42
2023-04-15T18:22:39.612Z,1.42
2023-04-15T18:25:06.934Z,1.40
2023-04-15T18:27:34.539Z,1.41
2023-04-15T18:30:01.189Z,1.40
2023-04-15T18:32:31.684Z,1.34
2023-04-15T18:34:58.465Z,1.27
2023-04-15T18:37:26.184Z,1.24
2023-04-15T18:39:54.112Z,1.19
2023-04-15T18:42:21.162Z,1.13
2023-04-15T18:44:48.208Z,1.08
2023-04-15T18:47:15.355Z,1.04
2023-04-15T18:49:42.046Z,0.97
2023-04-15T18:52:12.160Z,0.92
2023-04-15T18:54:38.675Z,0.93
2023-04-15T18:57:06.458Z,0.99
2023-04-15T18:59:33.661Z,1.09
2023-04-15T19:02:00.463Z,1.18
2023-04-15T19:04:29.329Z,1.24
2023-04-15T19:06:56.316Z,1.31
2023-04-15T19:09:22.947Z,1.34
2023-04-15T19:11:49.477Z,1.39
2023-04-15T19:14:17.315Z,1.51
2023-04-15T19:16:43.830Z,1.52
2023-04-15T19:19:10.434Z,1.51
2023-04-15T19:21:37.013Z,1.52
2023-04-15T19:24:03.656Z,1.54
2023-04-15T19:26:30.508Z,1.56
2023-04-15T19:28:58.896Z,1.55
2023-04-15T19:31:26.257Z,1.49
2023-04-15T19:33:53.024Z,1.43
2023-04-15T19:36:19.663Z,1.46
2023-04-15T19:38:46.203Z,1.43
2023-04-15T19:41:13.099Z,1.37
2023-04-15T19:43:39.628Z,1.32
2023-04-15T19:46:07.000Z,1.32
2023-04-15T19:48:33.599Z,1.36
2023-04-15T19:51:00.589Z,1.39
2023-04-15T19:53:27.210Z,1.38
2023-04-15T19:55:53.718Z,1.34
2023-04-15T19:58:20.287Z,1.27
2023-04-15T20:00:46.945Z,1.21
2023-04-15T20:03:13.790Z,1.16
2023-04-15T20:05:40.433Z,1.13
2023-04-15T20:08:06.949Z,1.13
2023-04-15T20:10:33.606Z,1.13
2023-04-15T20:13:00.205Z,1.12
2023-04-15T20:15:27.322Z,1.12
2023-04-15T20:17:54.201Z,1.11
2023-04-15T20:20:21.566Z,1.10
2023-04-15T20:22:48.492Z,1.11
2023-04-15T20:25:15.201Z,1.10
2023-04-15T20:27:41.750Z,1.11
2023-04-15T20:30:08.757Z,1.13
2023-04-15T20:32:36.117Z,1.14
2023-04-15T20:35:04.497Z,1.20
2023-04-15T20:37:33.426Z,1.24
2023-04-15T20:40:01.315Z,1.25
2023-04-15T20:42:28.213Z,1.25
2023-04-15T20:44:54.774Z,1.24
2023-04-15T20:47:21.517Z,1.22
2023-04-15T20:49:48.200Z,1.22
2023-04-15T20:52:14.797Z,1.24
2023-04-15T20:54:41.507Z,1.29
2023-04-15T20:57:08.034Z,1.31
2023-04-15T20:59:34.937Z,1.38
2023-04-15T21:02:01.956Z,1.42
2023-04-15T21:04:28.571Z,1.48
2023-04-15T21:06:55.233Z,1.69
2023-04-15T21:09:21.758Z,1.79
2023-04-15T21:14:18.889Z,1.67
2023-04-15T21:16:45.619Z,1.50
2023-04-15T21:19:12.290Z,1.37
2023-04-15T21:21:38.849Z,1.36
2023-04-15T21:24:07.727Z,1.33
2023-04-15T21:26:35.938Z,1.33
2023-04-15T21:29:03.053Z,1.36
2023-04-15T21:31:29.995Z,1.46
2023-04-15T21:33:56.618Z,1.59
2023-04-15T21:36:23.229Z,1.76
2023-04-15T21:38:49.786Z,1.70
2023-04-15T21:41:16.384Z,1.63
2023-04-15T21:43:42.941Z,1.62
2023-04-15T21:46:24.058Z,1.76
2023-04-15T21:48:52.504Z,1.73
2023-04-15T21:51:19.114Z,1.78
2023-04-15T21:53:45.677Z,1.86
2023-04-15T21:56:12.218Z,1.97
2023-04-15T21:58:38.819Z,2.02
2023-04-15T22:01:05.700Z,2.02
2023-04-15T22:03:34.696Z,2.00
2023-04-15T22:06:04.843Z,2.02
2023-04-15T22:08:38.550Z,2.00
2023-04-15T22:11:31.155Z,1.88
2023-04-15T22:13:58.650Z,1.84
2023-04-15T22:16:28.585Z,1.86
2023-04-15T22:18:56.071Z,1.97
2023-04-15T22:21:23.206Z,2.10
2023-04-15T22:23:49.891Z,2.12
2023-04-15T22:26:16.707Z,2.07
2023-04-15T22:28:43.285Z,2.00
2023-04-15T22:31:10.459Z,1.89
2023-04-15T22:33:37.143Z,1.87
2023-04-15T22:36:03.830Z,1.84
2023-04-15T22:38:30.489Z,1.82
2023-04-15T22:40:57.049Z,1.83
2023-04-15T22:43:23.809Z,1.85
2023-04-15T22:45:51.084Z,1.95
2023-04-15T22:48:20.780Z,2.04
2023-04-15T22:50:47.499Z,1.88
2023-04-15T22:53:15.661Z,1.74
2023-04-15T22:55:47.118Z,1.66
2023-04-15T22:58:14.300Z,1.68
2023-04-15T23:00:40.903Z,1.69
2023-04-15T23:03:07.763Z,1.78
2023-04-15T23:05:34.544Z,1.62
2023-04-15T23:08:01.201Z,1.39
2023-04-15T23:10:28.156Z,1.17
2023-04-15T23:12:54.738Z,1.04
2023-04-15T23:15:21.340Z,0.94
2023-04-15T23:17:47.893Z,0.93
2023-04-15T23:20:16.272Z,1.08
2023-04-15T23:22:43.312Z,1.15
2023-04-15T23:25:10.197Z,1.21
2023-04-15T23:27:36.924Z,1.26
2023-04-15T23:30:03.965Z,1.15
2023-04-15T23:32:30.750Z,1.00
2023-04-15T23:34:57.417Z,0.89
2023-04-15T23:37:23.992Z,0.87
2023-04-15T23:39:50.531Z,0.87
2023-04-15T23:42:17.276Z,0.92
2023-04-15T23:44:43.823Z,0.94
2023-04-15T23:47:10.670Z,0.90
2023-04-15T23:49:37.203Z,0.83
2023-04-15T23:52:04.154Z,0.77
2023-04-15T23:54:30.822Z,0.74
2023-04-15T23:56:57.394Z,0.72
2023-04-15T23:59:24.064Z,0.69
